sensor_id;sensor_type;location;lat;lon;timestamp;P1;durP1;ratioP1;P2;durP2;ratioP2
8040;SDS011;4063;48.140;10.250;2023-02-21T00:01:33;14.37;;;10.17;;
8040;SDS011;4063;48.140;10.250;2023-02-21T00:04:18;21.63;;;13.73;;
8040;SDS011;4063;48.140;10.250;2023-02-21T00:07:03;27.37;;;17.03;;
8040;SDS011;4063;48.140;10.250;2023-02-21T00:09:47;21.93;;;13.73;;
8040;SDS011;4063;48.140;10.250;2023-02-21T00:12:32;16.17;;;10.87;;
8040;SDS011;4063;48.140;10.250;2023-02-21T00:15:16;13.30;;;9.53;;
8040;SDS011;4063;48.140;10.250;2023-02-21T00:18:01;16.37;;;9.37;;
8040;SDS011;4063;48.140;10.250;2023-02-21T00:20:45;12.17;;;10.20;;
8040;SDS011;4063;48.140;10.250;2023-02-21T00:23:34;14.97;;;10.00;;
8040;SDS011;4063;48.140;10.250;2023-02-21T00:26:19;12.17;;;10.03;;
8040;SDS011;4063;48.140;10.250;2023-02-21T00:29:04;17.17;;;10.40;;
8040;SDS011;4063;48.140;10.250;2023-02-21T00:31:49;13.53;;;9.87;;
8040;SDS011;4063;48.140;10.250;2023-02-21T00:34:33;11.93;;;9.67;;
8040;SDS011;4063;48.140;10.250;2023-02-21T00:37:18;15.90;;;9.73;;
8040;SDS011;4063;48.140;10.250;2023-02-21T00:40:03;14.70;;;10.40;;
8040;SDS011;4063;48.140;10.250;2023-02-21T00:42:48;13.70;;;10.17;;
8040;SDS011;4063;48.140;10.250;2023-02-21T00:45:32;12.87;;;10.63;;
8040;SDS011;4063;48.140;10.250;2023-02-21T00:48:20;12.87;;;10.37;;
8040;SDS011;4063;48.140;10.250;2023-02-21T00:51:05;16.43;;;10.97;;
8040;SDS011;4063;48.140;10.250;2023-02-21T00:53:49;13.87;;;10.40;;
8040;SDS011;4063;48.140;10.250;2023-02-21T00:56:34;15.17;;;10.67;;
8040;SDS011;4063;48.140;10.250;2023-02-21T00:59:18;15.63;;;10.73;;
8040;SDS011;4063;48.140;10.250;2023-02-21T01:02:03;16.80;;;11.67;;
8040;SDS011;4063;48.140;10.250;2023-02-21T01:04:48;12.13;;;10.17;;
8040;SDS011;4063;48.140;10.250;2023-02-21T01:07:32;15.43;;;10.53;;
8040;SDS011;4063;48.140;10.250;2023-02-21T01:10:17;15.27;;;11.20;;
8040;SDS011;4063;48.140;10.250;2023-02-21T01:13:01;18.20;;;10.83;;
8040;SDS011;4063;48.140;10.250;2023-02-21T01:15:46;15.13;;;11.27;;
8040;SDS011;4063;48.140;10.250;2023-02-21T01:18:30;17.03;;;11.47;;
8040;SDS011;4063;48.140;10.250;2023-02-21T01:21:16;18.43;;;11.23;;
8040;SDS011;4063;48.140;10.250;2023-02-21T01:24:01;17.17;;;11.00;;
8040;SDS011;4063;48.140;10.250;2023-02-21T01:26:45;15.70;;;11.57;;
8040;SDS011;4063;48.140;10.250;2023-02-21T01:29:30;14.90;;;11.80;;
8040;SDS011;4063;48.140;10.250;2023-02-21T01:32:15;17.13;;;12.30;;
8040;SDS011;4063;48.140;10.250;2023-02-21T01:34:59;17.57;;;11.87;;
8040;SDS011;4063;48.140;10.250;2023-02-21T01:37:44;16.57;;;11.83;;
8040;SDS011;4063;48.140;10.250;2023-02-21T01:40:28;18.87;;;11.70;;
8040;SDS011;4063;48.140;10.250;2023-02-21T01:43:14;14.70;;;11.43;;
8040;SDS011;4063;48.140;10.250;2023-02-21T01:45:59;18.93;;;12.43;;
8040;SDS011;4063;48.140;10.250;2023-02-21T01:48:44;17.30;;;12.40;;
8040;SDS011;4063;48.140;10.250;2023-02-21T01:51:30;17.53;;;12.33;;
8040;SDS011;4063;48.140;10.250;2023-02-21T01:54:17;17.53;;;12.20;;
8040;SDS011;4063;48.140;10.250;2023-02-21T01:57:02;17.00;;;12.17;;
8040;SDS011;4063;48.140;10.250;2023-02-21T01:59:48;15.00;;;11.53;;
8040;SDS011;4063;48.140;10.250;2023-02-21T02:02:38;17.07;;;12.23;;
8040;SDS011;4063;48.140;10.250;2023-02-21T02:05:24;16.73;;;12.50;;
8040;SDS011;4063;48.140;10.250;2023-02-21T02:08:10;16.83;;;12.43;;
8040;SDS011;4063;48.140;10.250;2023-02-21T02:11:00;19.27;;;12.57;;
8040;SDS011;4063;48.140;10.250;2023-02-21T02:16:45;20.13;;;12.43;;
8040;SDS011;4063;48.140;10.250;2023-02-21T02:30:01;16.30;;;12.40;;
8040;SDS011;4063;48.140;10.250;2023-02-21T02:40:19;18.83;;;11.77;;
8040;SDS011;4063;48.140;10.250;2023-02-21T02:43:34;16.60;;;11.10;;
8040;SDS011;4063;48.140;10.250;2023-02-21T02:45:36;15.33;;;11.20;;
8040;SDS011;4063;48.140;10.250;2023-02-21T02:48:07;15.83;;;12.13;;
8040;SDS011;4063;48.140;10.250;2023-02-21T02:50:34;15.60;;;11.20;;
8040;SDS011;4063;48.140;10.250;2023-02-21T02:53:02;16.00;;;11.43;;
8040;SDS011;4063;48.140;10.250;2023-02-21T02:55:33;15.53;;;11.03;;
8040;SDS011;4063;48.140;10.250;2023-02-21T02:58:00;15.83;;;11.27;;
8040;SDS011;4063;48.140;10.250;2023-02-21T03:00:26;17.40;;;12.53;;
8040;SDS011;4063;48.140;10.250;2023-02-21T03:02:57;15.67;;;11.17;;
8040;SDS011;4063;48.140;10.250;2023-02-21T03:05:27;15.97;;;11.50;;
8040;SDS011;4063;48.140;10.250;2023-02-21T03:08:03;16.07;;;11.70;;
8040;SDS011;4063;48.140;10.250;2023-02-21T03:10:42;14.63;;;10.97;;
8040;SDS011;4063;48.140;10.250;2023-02-21T03:15:49;18.60;;;11.87;;
8040;SDS011;4063;48.140;10.250;2023-02-21T03:18:23;14.97;;;11.10;;
8040;SDS011;4063;48.140;10.250;2023-02-21T03:20:52;15.67;;;12.23;;
8040;SDS011;4063;48.140;10.250;2023-02-21T03:23:19;18.07;;;12.07;;
8040;SDS011;4063;48.140;10.250;2023-02-21T03:25:46;19.75;;;14.73;;
8040;SDS011;4063;48.140;10.250;2023-02-21T03:28:15;15.70;;;12.50;;
8040;SDS011;4063;48.140;10.250;2023-02-21T03:30:41;21.20;;;12.37;;
8040;SDS011;4063;48.140;10.250;2023-02-21T03:33:08;16.83;;;12.63;;
8040;SDS011;4063;48.140;10.250;2023-02-21T03:35:34;16.60;;;11.47;;
8040;SDS011;4063;48.140;10.250;2023-02-21T03:38:00;14.70;;;11.80;;
8040;SDS011;4063;48.140;10.250;2023-02-21T03:40:27;18.73;;;11.67;;
8040;SDS011;4063;48.140;10.250;2023-02-21T03:42:54;16.50;;;11.63;;
8040;SDS011;4063;48.140;10.250;2023-02-21T03:45:20;17.00;;;10.77;;
8040;SDS011;4063;48.140;10.250;2023-02-21T03:47:46;17.77;;;11.07;;
8040;SDS011;4063;48.140;10.250;2023-02-21T03:50:12;16.13;;;11.90;;
8040;SDS011;4063;48.140;10.250;2023-02-21T03:52:38;16.57;;;10.97;;
8040;SDS011;4063;48.140;10.250;2023-02-21T03:55:05;21.23;;;11.53;;
8040;SDS011;4063;48.140;10.250;2023-02-21T03:57:31;21.83;;;11.53;;
8040;SDS011;4063;48.140;10.250;2023-02-21T03:59:57;14.83;;;10.50;;
8040;SDS011;4063;48.140;10.250;2023-02-21T04:02:23;14.00;;;11.17;;
8040;SDS011;4063;48.140;10.250;2023-02-21T04:04:49;14.37;;;10.80;;
8040;SDS011;4063;48.140;10.250;2023-02-21T04:07:15;14.97;;;11.20;;
8040;SDS011;4063;48.140;10.250;2023-02-21T04:09:41;13.00;;;9.83;;
8040;SDS011;4063;48.140;10.250;2023-02-21T04:12:07;13.53;;;11.07;;
8040;SDS011;4063;48.140;10.250;2023-02-21T04:14:34;18.40;;;10.60;;
8040;SDS011;4063;48.140;10.250;2023-02-21T04:17:00;16.13;;;10.17;;
8040;SDS011;4063;48.140;10.250;2023-02-21T04:19:26;18.47;;;11.00;;
8040;SDS011;4063;48.140;10.250;2023-02-21T04:21:51;15.30;;;11.37;;
8040;SDS011;4063;48.140;10.250;2023-02-21T04:24:17;15.07;;;10.77;;
8040;SDS011;4063;48.140;10.250;2023-02-21T04:26:43;14.70;;;10.67;;
8040;SDS011;4063;48.140;10.250;2023-02-21T04:29:09;13.27;;;10.27;;
8040;SDS011;4063;48.140;10.250;2023-02-21T04:31:35;20.40;;;10.53;;
8040;SDS011;4063;48.140;10.250;2023-02-21T04:34:01;15.37;;;10.83;;
8040;SDS011;4063;48.140;10.250;2023-02-21T04:36:27;16.27;;;11.33;;
8040;SDS011;4063;48.140;10.250;2023-02-21T04:38:53;13.10;;;10.37;;
8040;SDS011;4063;48.140;10.250;2023-02-21T04:41:20;16.70;;;10.17;;
8040;SDS011;4063;48.140;10.250;2023-02-21T04:43:46;15.87;;;9.93;;
8040;SDS011;4063;48.140;10.250;2023-02-21T04:46:13;15.40;;;10.70;;
8040;SDS011;4063;48.140;10.250;2023-02-21T04:48:41;15.47;;;10.90;;
8040;SDS011;4063;48.140;10.250;2023-02-21T04:51:07;16.27;;;11.40;;
8040;SDS011;4063;48.140;10.250;2023-02-21T04:53:33;17.23;;;10.23;;
8040;SDS011;4063;48.140;10.250;2023-02-21T04:55:59;16.60;;;11.00;;
8040;SDS011;4063;48.140;10.250;2023-02-21T04:58:25;15.60;;;11.27;;
8040;SDS011;4063;48.140;10.250;2023-02-21T05:00:51;13.60;;;9.97;;
8040;SDS011;4063;48.140;10.250;2023-02-21T05:03:17;13.67;;;10.37;;
8040;SDS011;4063;48.140;10.250;2023-02-21T05:05:43;14.30;;;10.50;;
8040;SDS011;4063;48.140;10.250;2023-02-21T05:08:09;15.90;;;11.43;;
8040;SDS011;4063;48.140;10.250;2023-02-21T05:10:34;13.63;;;9.83;;
8040;SDS011;4063;48.140;10.250;2023-02-21T05:13:00;20.10;;;11.03;;
8040;SDS011;4063;48.140;10.250;2023-02-21T05:15:26;15.80;;;10.30;;
8040;SDS011;4063;48.140;10.250;2023-02-21T05:17:52;11.93;;;9.67;;
8040;SDS011;4063;48.140;10.250;2023-02-21T05:20:18;13.83;;;10.93;;
8040;SDS011;4063;48.140;10.250;2023-02-21T05:22:44;16.47;;;10.97;;
8040;SDS011;4063;48.140;10.250;2023-02-21T05:25:20;15.90;;;10.20;;
8040;SDS011;4063;48.140;10.250;2023-02-21T05:27:47;18.93;;;11.07;;
8040;SDS011;4063;48.140;10.250;2023-02-21T05:30:14;16.53;;;10.53;;
8040;SDS011;4063;48.140;10.250;2023-02-21T05:32:40;13.93;;;10.37;;
8040;SDS011;4063;48.140;10.250;2023-02-21T05:35:07;12.80;;;9.43;;
8040;SDS011;4063;48.140;10.250;2023-02-21T05:37:33;13.50;;;10.80;;
8040;SDS011;4063;48.140;10.250;2023-02-21T05:39:59;13.63;;;9.93;;
8040;SDS011;4063;48.140;10.250;2023-02-21T05:42:25;15.57;;;10.77;;
8040;SDS011;4063;48.140;10.250;2023-02-21T05:44:51;14.57;;;10.10;;
8040;SDS011;4063;48.140;10.250;2023-02-21T05:47:17;14.07;;;10.77;;
8040;SDS011;4063;48.140;10.250;2023-02-21T05:49:43;38.83;;;26.30;;
8040;SDS011;4063;48.140;10.250;2023-02-21T05:52:10;36.10;;;24.90;;
8040;SDS011;4063;48.140;10.250;2023-02-21T05:54:36;132.47;;;71.60;;
8040;SDS011;4063;48.140;10.250;2023-02-21T05:57:02;121.70;;;69.53;;
8040;SDS011;4063;48.140;10.250;2023-02-21T05:59:28;94.27;;;54.17;;
8040;SDS011;4063;48.140;10.250;2023-02-21T06:01:54;52.50;;;32.07;;
8040;SDS011;4063;48.140;10.250;2023-02-21T06:04:21;18.47;;;12.57;;
8040;SDS011;4063;48.140;10.250;2023-02-21T06:06:47;15.70;;;10.30;;
8040;SDS011;4063;48.140;10.250;2023-02-21T06:09:13;12.93;;;10.30;;
8040;SDS011;4063;48.140;10.250;2023-02-21T06:11:39;14.40;;;9.47;;
8040;SDS011;4063;48.140;10.250;2023-02-21T06:14:07;13.13;;;9.43;;
8040;SDS011;4063;48.140;10.250;2023-02-21T06:16:36;13.30;;;9.37;;
8040;SDS011;4063;48.140;10.250;2023-02-21T06:19:03;12.27;;;8.33;;
8040;SDS011;4063;48.140;10.250;2023-02-21T06:21:30;12.20;;;9.23;;
8040;SDS011;4063;48.140;10.250;2023-02-21T06:23:55;13.57;;;10.13;;
8040;SDS011;4063;48.140;10.250;2023-02-21T06:26:21;12.30;;;9.40;;
8040;SDS011;4063;48.140;10.250;2023-02-21T06:28:47;15.43;;;9.70;;
8040;SDS011;4063;48.140;10.250;2023-02-21T06:31:14;15.93;;;10.77;;
8040;SDS011;4063;48.140;10.250;2023-02-21T06:33:40;15.97;;;11.27;;
8040;SDS011;4063;48.140;10.250;2023-02-21T06:36:07;18.23;;;11.67;;
8040;SDS011;4063;48.140;10.250;2023-02-21T06:38:35;14.70;;;10.90;;
8040;SDS011;4063;48.140;10.250;2023-02-21T06:41:04;17.47;;;11.03;;
8040;SDS011;4063;48.140;10.250;2023-02-21T06:43:30;14.93;;;11.50;;
8040;SDS011;4063;48.140;10.250;2023-02-21T06:45:56;17.50;;;11.87;;
8040;SDS011;4063;48.140;10.250;2023-02-21T06:48:22;18.13;;;12.30;;
8040;SDS011;4063;48.140;10.250;2023-02-21T06:50:48;15.73;;;11.77;;
8040;SDS011;4063;48.140;10.250;2023-02-21T06:53:14;15.47;;;11.90;;
8040;SDS011;4063;48.140;10.250;2023-02-21T06:55:40;15.70;;;11.87;;
8040;SDS011;4063;48.140;10.250;2023-02-21T06:58:06;16.03;;;12.17;;
8040;SDS011;4063;48.140;10.250;2023-02-21T07:00:32;17.23;;;11.20;;
8040;SDS011;4063;48.140;10.250;2023-02-21T07:02:58;14.23;;;10.33;;
8040;SDS011;4063;48.140;10.250;2023-02-21T07:05:24;15.93;;;9.83;;
8040;SDS011;4063;48.140;10.250;2023-02-21T07:07:50;14.60;;;9.77;;
8040;SDS011;4063;48.140;10.250;2023-02-21T07:10:16;11.57;;;9.50;;
8040;SDS011;4063;48.140;10.250;2023-02-21T07:12:42;13.73;;;9.00;;
8040;SDS011;4063;48.140;10.250;2023-02-21T07:15:08;12.60;;;9.60;;
8040;SDS011;4063;48.140;10.250;2023-02-21T07:17:34;11.33;;;8.80;;
8040;SDS011;4063;48.140;10.250;2023-02-21T07:20:00;14.10;;;8.83;;
8040;SDS011;4063;48.140;10.250;2023-02-21T07:22:26;11.50;;;8.77;;
8040;SDS011;4063;48.140;10.250;2023-02-21T07:24:52;10.50;;;8.60;;
8040;SDS011;4063;48.140;10.250;2023-02-21T07:27:18;12.10;;;8.13;;
8040;SDS011;4063;48.140;10.250;2023-02-21T07:29:48;14.13;;;8.47;;
8040;SDS011;4063;48.140;10.250;2023-02-21T07:32:14;10.53;;;8.13;;
8040;SDS011;4063;48.140;10.250;2023-02-21T07:34:41;13.27;;;8.40;;
8040;SDS011;4063;48.140;10.250;2023-02-21T07:37:07;11.00;;;7.93;;
8040;SDS011;4063;48.140;10.250;2023-02-21T07:39:33;13.73;;;9.47;;
8040;SDS011;4063;48.140;10.250;2023-02-21T07:41:59;11.33;;;9.20;;
8040;SDS011;4063;48.140;10.250;2023-02-21T07:44:25;11.40;;;8.47;;
8040;SDS011;4063;48.140;10.250;2023-02-21T07:46:51;14.20;;;9.53;;
8040;SDS011;4063;48.140;10.250;2023-02-21T07:49:17;11.60;;;9.60;;
8040;SDS011;4063;48.140;10.250;2023-02-21T07:51:43;18.63;;;12.97;;
8040;SDS011;4063;48.140;10.250;2023-02-21T07:54:09;22.47;;;12.90;;
8040;SDS011;4063;48.140;10.250;2023-02-21T07:56:34;12.20;;;9.97;;
8040;SDS011;4063;48.140;10.250;2023-02-21T07:59:00;12.90;;;8.80;;
8040;SDS011;4063;48.140;10.250;2023-02-21T08:01:26;9.80;;;7.33;;
8040;SDS011;4063;48.140;10.250;2023-02-21T08:03:52;10.23;;;6.93;;
8040;SDS011;4063;48.140;10.250;2023-02-21T08:06:18;8.70;;;7.30;;
8040;SDS011;4063;48.140;10.250;2023-02-21T08:08:44;7.90;;;6.87;;
8040;SDS011;4063;48.140;10.250;2023-02-21T08:11:10;12.33;;;6.90;;
8040;SDS011;4063;48.140;10.250;2023-02-21T08:13:36;8.13;;;6.20;;
8040;SDS011;4063;48.140;10.250;2023-02-21T08:16:02;7.73;;;5.47;;
8040;SDS011;4063;48.140;10.250;2023-02-21T08:18:28;6.53;;;5.60;;
8040;SDS011;4063;48.140;10.250;2023-02-21T08:20:54;7.43;;;6.07;;
8040;SDS011;4063;48.140;10.250;2023-02-21T08:23:21;7.13;;;5.70;;
8040;SDS011;4063;48.140;10.250;2023-02-21T08:25:47;7.70;;;5.53;;
8040;SDS011;4063;48.140;10.250;2023-02-21T08:28:14;7.83;;;4.83;;
8040;SDS011;4063;48.140;10.250;2023-02-21T08:30:40;9.60;;;5.23;;
8040;SDS011;4063;48.140;10.250;2023-02-21T08:33:07;8.50;;;4.73;;
8040;SDS011;4063;48.140;10.250;2023-02-21T08:35:33;7.90;;;5.30;;
8040;SDS011;4063;48.140;10.250;2023-02-21T08:37:59;10.43;;;5.60;;
8040;SDS011;4063;48.140;10.250;2023-02-21T08:40:29;14.27;;;7.63;;
8040;SDS011;4063;48.140;10.250;2023-02-21T08:42:56;12.13;;;7.17;;
8040;SDS011;4063;48.140;10.250;2023-02-21T08:45:22;13.47;;;5.83;;
8040;SDS011;4063;48.140;10.250;2023-02-21T08:47:48;8.07;;;5.87;;
8040;SDS011;4063;48.140;10.250;2023-02-21T08:50:15;8.33;;;6.03;;
8040;SDS011;4063;48.140;10.250;2023-02-21T08:52:41;10.20;;;5.50;;
8040;SDS011;4063;48.140;10.250;2023-02-21T08:55:07;7.43;;;5.10;;
8040;SDS011;4063;48.140;10.250;2023-02-21T08:57:33;12.77;;;6.03;;
8040;SDS011;4063;48.140;10.250;2023-02-21T08:59:59;6.43;;;5.20;;
8040;SDS011;4063;48.140;10.250;2023-02-21T09:02:25;9.30;;;5.37;;
8040;SDS011;4063;48.140;10.250;2023-02-21T09:04:53;6.97;;;5.03;;
8040;SDS011;4063;48.140;10.250;2023-02-21T09:07:20;7.30;;;4.20;;
8040;SDS011;4063;48.140;10.250;2023-02-21T09:09:46;4.93;;;3.27;;
8040;SDS011;4063;48.140;10.250;2023-02-21T09:12:12;5.53;;;3.17;;
8040;SDS011;4063;48.140;10.250;2023-02-21T09:14:39;5.50;;;3.77;;
8040;SDS011;4063;48.140;10.250;2023-02-21T09:17:06;6.17;;;3.67;;
8040;SDS011;4063;48.140;10.250;2023-02-21T09:19:32;4.80;;;3.23;;
8040;SDS011;4063;48.140;10.250;2023-02-21T09:21:59;6.37;;;3.47;;
8040;SDS011;4063;48.140;10.250;2023-02-21T09:24:25;10.87;;;3.53;;
8040;SDS011;4063;48.140;10.250;2023-02-21T09:26:52;7.90;;;4.10;;
8040;SDS011;4063;48.140;10.250;2023-02-21T09:29:21;4.97;;;4.13;;
8040;SDS011;4063;48.140;10.250;2023-02-21T09:31:48;6.43;;;4.20;;
8040;SDS011;4063;48.140;10.250;2023-02-21T09:34:14;7.20;;;4.33;;
8040;SDS011;4063;48.140;10.250;2023-02-21T09:36:40;6.20;;;3.97;;
8040;SDS011;4063;48.140;10.250;2023-02-21T09:39:07;5.43;;;4.20;;
8040;SDS011;4063;48.140;10.250;2023-02-21T09:41:33;7.03;;;3.97;;
8040;SDS011;4063;48.140;10.250;2023-02-21T09:43:59;5.77;;;4.00;;
8040;SDS011;4063;48.140;10.250;2023-02-21T09:46:37;5.37;;;3.87;;
8040;SDS011;4063;48.140;10.250;2023-02-21T09:49:06;8.37;;;3.87;;
8040;SDS011;4063;48.140;10.250;2023-02-21T09:51:37;4.70;;;4.13;;
8040;SDS011;4063;48.140;10.250;2023-02-21T09:54:05;7.20;;;4.00;;
8040;SDS011;4063;48.140;10.250;2023-02-21T09:56:37;4.73;;;3.70;;
8040;SDS011;4063;48.140;10.250;2023-02-21T09:59:08;6.70;;;3.90;;
8040;SDS011;4063;48.140;10.250;2023-02-21T10:12:25;8.07;;;4.40;;
8040;SDS011;4063;48.140;10.250;2023-02-21T10:15:01;4.23;;;3.70;;
8040;SDS011;4063;48.140;10.250;2023-02-21T10:17:36;5.67;;;4.30;;
8040;SDS011;4063;48.140;10.250;2023-02-21T10:20:11;5.07;;;4.07;;
8040;SDS011;4063;48.140;10.250;2023-02-21T10:22:38;6.77;;;4.33;;
8040;SDS011;4063;48.140;10.250;2023-02-21T10:25:22;7.90;;;4.30;;
8040;SDS011;4063;48.140;10.250;2023-02-21T10:27:49;7.67;;;4.63;;
8040;SDS011;4063;48.140;10.250;2023-02-21T10:30:35;6.07;;;4.03;;
8040;SDS011;4063;48.140;10.250;2023-02-21T10:33:02;6.33;;;4.40;;
8040;SDS011;4063;48.140;10.250;2023-02-21T10:35:30;7.03;;;3.70;;
8040;SDS011;4063;48.140;10.250;2023-02-21T10:37:57;6.03;;;4.07;;
8040;SDS011;4063;48.140;10.250;2023-02-21T10:40:35;6.20;;;4.43;;
8040;SDS011;4063;48.140;10.250;2023-02-21T10:43:09;7.77;;;4.50;;
8040;SDS011;4063;48.140;10.250;2023-02-21T10:45:40;5.17;;;3.90;;
8040;SDS011;4063;48.140;10.250;2023-02-21T10:48:09;4.10;;;3.70;;
8040;SDS011;4063;48.140;10.250;2023-02-21T10:53:04;7.43;;;4.10;;
8040;SDS011;4063;48.140;10.250;2023-02-21T10:55:30;4.07;;;3.67;;
8040;SDS011;4063;48.140;10.250;2023-02-21T10:57:57;6.47;;;4.57;;
8040;SDS011;4063;48.140;10.250;2023-02-21T11:00:37;5.30;;;3.87;;
8040;SDS011;4063;48.140;10.250;2023-02-21T11:05:51;5.70;;;4.40;;
8040;SDS011;4063;48.140;10.250;2023-02-21T11:08:34;4.53;;;3.93;;
8040;SDS011;4063;48.140;10.250;2023-02-21T11:11:00;4.20;;;3.80;;
8040;SDS011;4063;48.140;10.250;2023-02-21T11:13:27;5.03;;;3.93;;
8040;SDS011;4063;48.140;10.250;2023-02-21T11:16:15;8.13;;;5.97;;
8040;SDS011;4063;48.140;10.250;2023-02-21T11:18:41;5.00;;;3.93;;
8040;SDS011;4063;48.140;10.250;2023-02-21T11:21:14;4.40;;;3.60;;
8040;SDS011;4063;48.140;10.250;2023-02-21T11:23:56;5.35;;;3.50;;
8040;SDS011;4063;48.140;10.250;2023-02-21T11:26:26;7.72;;;4.85;;
8040;SDS011;4063;48.140;10.250;2023-02-21T11:28:54;5.68;;;3.78;;
8040;SDS011;4063;48.140;10.250;2023-02-21T11:31:22;8.00;;;3.72;;
8040;SDS011;4063;48.140;10.250;2023-02-21T11:33:56;6.97;;;3.78;;
8040;SDS011;4063;48.140;10.250;2023-02-21T11:36:26;3.72;;;3.30;;
8040;SDS011;4063;48.140;10.250;2023-02-21T11:39:04;5.32;;;3.47;;
8040;SDS011;4063;48.140;10.250;2023-02-21T11:41:37;4.25;;;3.28;;
8040;SDS011;4063;48.140;10.250;2023-02-21T11:44:21;6.43;;;3.38;;
8040;SDS011;4063;48.140;10.250;2023-02-21T11:46:47;6.13;;;3.10;;
8040;SDS011;4063;48.140;10.250;2023-02-21T11:49:33;6.75;;;3.40;;
8040;SDS011;4063;48.140;10.250;2023-02-21T11:52:08;7.20;;;3.83;;
8040;SDS011;4063;48.140;10.250;2023-02-21T11:54:35;4.85;;;3.67;;
8040;SDS011;4063;48.140;10.250;2023-02-21T12:04:58;3.30;;;3.00;;
8040;SDS011;4063;48.140;10.250;2023-02-21T12:15:41;3.90;;;2.95;;
8040;SDS011;4063;48.140;10.250;2023-02-21T12:18:21;3.08;;;2.60;;
8040;SDS011;4063;48.140;10.250;2023-02-21T12:29:13;3.47;;;2.70;;
8040;SDS011;4063;48.140;10.250;2023-02-21T12:36:16;3.38;;;2.38;;
8040;SDS011;4063;48.140;10.250;2023-02-21T12:39:28;4.72;;;2.60;;
8040;SDS011;4063;48.140;10.250;2023-02-21T12:44:18;4.15;;;2.85;;
8040;SDS011;4063;48.140;10.250;2023-02-21T12:49:22;5.07;;;2.78;;
8040;SDS011;4063;48.140;10.250;2023-02-21T12:51:53;3.67;;;2.88;;
8040;SDS011;4063;48.140;10.250;2023-02-21T12:54:42;4.43;;;2.90;;
8040;SDS011;4063;48.140;10.250;2023-02-21T12:57:13;4.72;;;2.22;;
8040;SDS011;4063;48.140;10.250;2023-02-21T13:02:11;2.83;;;2.25;;
8040;SDS011;4063;48.140;10.250;2023-02-21T13:04:45;6.38;;;2.50;;
8040;SDS011;4063;48.140;10.250;2023-02-21T13:07:14;3.95;;;2.17;;
8040;SDS011;4063;48.140;10.250;2023-02-21T13:12:16;2.28;;;1.85;;
8040;SDS011;4063;48.140;10.250;2023-02-21T13:14:45;3.97;;;1.58;;
8040;SDS011;4063;48.140;10.250;2023-02-21T13:17:14;0.90;;;0.90;;
8040;SDS011;4063;48.140;10.250;2023-02-21T13:19:44;0.70;;;0.70;;
8040;SDS011;4063;48.140;10.250;2023-02-21T13:30:02;2.60;;;1.42;;
8040;SDS011;4063;48.140;10.250;2023-02-21T13:32:28;2.00;;;1.20;;
8040;SDS011;4063;48.140;10.250;2023-02-21T13:35:01;1.45;;;1.30;;
8040;SDS011;4063;48.140;10.250;2023-02-21T13:37:31;3.40;;;1.52;;
8040;SDS011;4063;48.140;10.250;2023-02-21T13:42:35;1.70;;;1.20;;
8040;SDS011;4063;48.140;10.250;2023-02-21T13:45:13;5.85;;;1.60;;
8040;SDS011;4063;48.140;10.250;2023-02-21T13:55:33;1.20;;;1.10;;
8040;SDS011;4063;48.140;10.250;2023-02-21T14:08:10;0.80;;;0.80;;
8040;SDS011;4063;48.140;10.250;2023-02-21T14:21:47;1.20;;;1.10;;
8040;SDS011;4063;48.140;10.250;2023-02-21T14:23:55;1.20;;;1.10;;
8040;SDS011;4063;48.140;10.250;2023-02-21T14:31:51;1.38;;;1.00;;
8040;SDS011;4063;48.140;10.250;2023-02-21T14:34:36;0.80;;;0.80;;
8040;SDS011;4063;48.140;10.250;2023-02-21T14:39:43;1.30;;;1.20;;
8040;SDS011;4063;48.140;10.250;2023-02-21T14:44:46;1.20;;;1.00;;
8040;SDS011;4063;48.140;10.250;2023-02-21T14:57:59;1.50;;;1.10;;
8040;SDS011;4063;48.140;10.250;2023-02-21T15:00:32;1.38;;;1.20;;
8040;SDS011;4063;48.140;10.250;2023-02-21T15:05:32;1.90;;;1.15;;
8040;SDS011;4063;48.140;10.250;2023-02-21T15:10:30;2.28;;;1.30;;
8040;SDS011;4063;48.140;10.250;2023-02-21T15:12:58;2.25;;;1.40;;
8040;SDS011;4063;48.140;10.250;2023-02-21T15:15:40;1.45;;;1.30;;
8040;SDS011;4063;48.140;10.250;2023-02-21T15:18:07;1.60;;;1.50;;
8040;SDS011;4063;48.140;10.250;2023-02-21T15:20:35;2.38;;;1.30;;
8040;SDS011;4063;48.140;10.250;2023-02-21T15:25:34;2.67;;;1.38;;
8040;SDS011;4063;48.140;10.250;2023-02-21T15:28:01;2.00;;;1.60;;
8040;SDS011;4063;48.140;10.250;2023-02-21T15:30:31;1.65;;;1.20;;
8040;SDS011;4063;48.140;10.250;2023-02-21T15:32:59;2.17;;;1.67;;
8040;SDS011;4063;48.140;10.250;2023-02-21T15:35:31;2.30;;;1.80;;
8040;SDS011;4063;48.140;10.250;2023-02-21T15:37:57;3.35;;;1.75;;
8040;SDS011;4063;48.140;10.250;2023-02-21T15:40:25;3.55;;;1.90;;
8040;SDS011;4063;48.140;10.250;2023-02-21T15:42:51;7.07;;;2.90;;
8040;SDS011;4063;48.140;10.250;2023-02-21T15:45:20;3.22;;;2.15;;
8040;SDS011;4063;48.140;10.250;2023-02-21T15:47:47;3.83;;;2.10;;
8040;SDS011;4063;48.140;10.250;2023-02-21T15:50:21;2.60;;;1.80;;
8040;SDS011;4063;48.140;10.250;2023-02-21T15:52:49;2.60;;;1.75;;
8040;SDS011;4063;48.140;10.250;2023-02-21T15:57:55;9.18;;;2.30;;
8040;SDS011;4063;48.140;10.250;2023-02-21T16:02:48;3.92;;;2.58;;
8040;SDS011;4063;48.140;10.250;2023-02-21T16:05:28;5.72;;;3.78;;
8040;SDS011;4063;48.140;10.250;2023-02-21T16:08:00;7.90;;;3.22;;
8040;SDS011;4063;48.140;10.250;2023-02-21T16:10:28;6.15;;;2.33;;
8040;SDS011;4063;48.140;10.250;2023-02-21T16:12:55;3.75;;;2.50;;
8040;SDS011;4063;48.140;10.250;2023-02-21T16:15:24;8.00;;;2.80;;
8040;SDS011;4063;48.140;10.250;2023-02-21T16:17:53;5.57;;;2.80;;
8040;SDS011;4063;48.140;10.250;2023-02-21T16:20:34;10.37;;;3.10;;
8040;SDS011;4063;48.140;10.250;2023-02-21T16:28:38;9.00;;;4.38;;
8040;SDS011;4063;48.140;10.250;2023-02-21T16:31:05;17.05;;;5.13;;
8040;SDS011;4063;48.140;10.250;2023-02-21T16:33:33;11.88;;;7.20;;
8040;SDS011;4063;48.140;10.250;2023-02-21T16:36:00;18.92;;;4.95;;
8040;SDS011;4063;48.140;10.250;2023-02-21T16:38:30;18.23;;;4.72;;
8040;SDS011;4063;48.140;10.250;2023-02-21T16:40:56;14.75;;;4.22;;
8040;SDS011;4063;48.140;10.250;2023-02-21T16:43:23;12.18;;;3.90;;
8040;SDS011;4063;48.140;10.250;2023-02-21T16:45:50;20.83;;;4.65;;
8040;SDS011;4063;48.140;10.250;2023-02-21T16:48:19;9.05;;;4.72;;
8040;SDS011;4063;48.140;10.250;2023-02-21T16:50:48;16.83;;;5.78;;
8040;SDS011;4063;48.140;10.250;2023-02-21T16:53:15;12.70;;;5.28;;
8040;SDS011;4063;48.140;10.250;2023-02-21T16:55:41;9.10;;;4.65;;
8040;SDS011;4063;48.140;10.250;2023-02-21T16:58:42;12.70;;;5.60;;
8040;SDS011;4063;48.140;10.250;2023-02-21T17:01:05;10.70;;;5.50;;
8040;SDS011;4063;48.140;10.250;2023-02-21T17:03:48;14.23;;;6.03;;
8040;SDS011;4063;48.140;10.250;2023-02-21T17:06:15;13.55;;;7.57;;
8040;SDS011;4063;48.140;10.250;2023-02-21T17:08:44;15.48;;;8.93;;
8040;SDS011;4063;48.140;10.250;2023-02-21T17:11:10;16.88;;;9.50;;
8040;SDS011;4063;48.140;10.250;2023-02-21T17:13:36;10.68;;;6.13;;
8040;SDS011;4063;48.140;10.250;2023-02-21T17:16:02;9.18;;;3.70;;
8040;SDS011;4063;48.140;10.250;2023-02-21T17:18:27;15.48;;;7.55;;
8040;SDS011;4063;48.140;10.250;2023-02-21T17:20:55;14.67;;;6.63;;
8040;SDS011;4063;48.140;10.250;2023-02-21T17:23:21;10.10;;;5.10;;
8040;SDS011;4063;48.140;10.250;2023-02-21T17:25:47;9.98;;;5.47;;
8040;SDS011;4063;48.140;10.250;2023-02-21T17:28:13;9.83;;;5.80;;
8040;SDS011;4063;48.140;10.250;2023-02-21T17:30:38;11.60;;;5.30;;
8040;SDS011;4063;48.140;10.250;2023-02-21T17:33:04;11.70;;;6.97;;
8040;SDS011;4063;48.140;10.250;2023-02-21T17:35:31;9.00;;;4.43;;
8040;SDS011;4063;48.140;10.250;2023-02-21T17:37:57;10.17;;;3.50;;
8040;SDS011;4063;48.140;10.250;2023-02-21T17:40:25;4.27;;;3.60;;
8040;SDS011;4063;48.140;10.250;2023-02-21T17:42:51;9.03;;;3.13;;
8040;SDS011;4063;48.140;10.250;2023-02-21T17:45:18;9.83;;;3.33;;
8040;SDS011;4063;48.140;10.250;2023-02-21T17:47:46;10.77;;;3.70;;